createdAt,value
2018-03-04T00:02:25.597Z,96056.35
2018-03-04T00:04:54.367Z,96059.79
2018-03-04T00:07:23.122Z,96061.93
2018-03-04T00:09:52.340Z,96062.86
2018-03-04T00:12:21.558Z,96058.46
2018-03-04T00:14:50.240Z,96063.38
2018-03-04T00:17:18.682Z,96062.19
2018-03-04T00:19:47.117Z,96070.16
2018-03-04T00:22:15.738Z,96077.73
2018-03-04T00:24:45.331Z,96077.98
2018-03-04T00:27:13.908Z,96091.40
2018-03-04T00:29:43.660Z,96084.08
2018-03-04T00:32:13.381Z,96089.21
2018-03-04T00:34:43.629Z,96095.08
2018-03-04T00:37:17.864Z,96095.59
2018-03-04T00:40:34.006Z,96090.28
2018-03-04T00:43:23.129Z,96101.58
2018-03-04T00:45:51.841Z,96098.98
2018-03-04T00:48:20.322Z,96099.48
2018-03-04T00:50:48.978Z,96107.02
2018-03-04T00:53:17.720Z,96103.23
2018-03-04T00:55:47.395Z,96108.25
2018-03-04T00:58:16.010Z,96103.11
2018-03-04T01:00:45.242Z,96100.14
2018-03-04T01:03:13.846Z,96102.48
2018-03-04T01:05:42.283Z,96095.28
2018-03-04T01:08:11.933Z,96096.93
2018-03-04T01:10:40.817Z,96087.72
2018-03-04T01:13:09.583Z,96084.20
2018-03-04T01:15:38.987Z,96092.68
2018-03-04T01:18:07.801Z,96089.98
2018-03-04T01:20:37.201Z,96091.77
2018-03-04T01:23:06.742Z,96096.12
2018-03-04T01:25:35.953Z,96097.81
2018-03-04T01:28:19.509Z,96099.12
2018-03-04T01:31:01.288Z,96106.77
2018-03-04T01:39:57.632Z,96097.86
2018-03-04T01:42:26.393Z,96082.80
2018-03-04T01:44:54.857Z,96087.84
2018-03-04T01:47:24.220Z,96082.08
2018-03-04T01:49:52.898Z,96092.03
2018-03-04T01:52:22.046Z,96101.95
2018-03-04T01:54:50.667Z,96118.65
2018-03-04T01:57:20.801Z,96112.77
2018-03-04T01:59:49.447Z,96118.33
2018-03-04T02:02:17.967Z,96127.73
2018-03-04T02:04:46.447Z,96113.48
2018-03-04T02:07:15.858Z,96125.58
2018-03-04T02:09:44.402Z,96134.56
2018-03-04T02:12:12.886Z,96125.93
2018-03-04T02:14:41.606Z,96132.00
2018-03-04T02:17:11.067Z,96135.69
2018-03-04T02:19:39.900Z,96126.37
2018-03-04T02:22:08.902Z,96132.71
2018-03-04T02:24:37.749Z,96122.74
2018-03-04T02:27:06.783Z,96117.27
2018-03-04T02:30:01.817Z,96119.88
2018-03-04T02:38:55.081Z,96121.15
2018-03-04T02:41:23.728Z,96118.33
2018-03-04T02:43:52.824Z,96119.36
2018-03-04T02:46:21.459Z,96117.36
2018-03-04T02:48:50.006Z,96113.89
2018-03-04T02:51:18.523Z,96118.12
2018-03-04T02:53:47.072Z,96123.02
2018-03-04T02:56:15.523Z,96125.38
2018-03-04T02:58:44.853Z,96130.42
2018-03-04T03:01:13.474Z,96130.52
2018-03-04T03:03:42.966Z,96127.60
2018-03-04T03:06:11.665Z,96122.91
2018-03-04T03:08:40.220Z,96128.47
2018-03-04T03:11:08.700Z,96133.38
2018-03-04T03:13:37.330Z,96135.21
2018-03-04T03:16:05.861Z,96132.29
2018-03-04T03:18:35.806Z,96135.45
2018-03-04T03:21:05.318Z,96133.56
2018-03-04T03:23:34.022Z,96139.38
2018-03-04T03:26:02.691Z,96139.52
2018-03-04T03:28:31.270Z,96134.45
2018-03-04T03:31:00.089Z,96136.30
2018-03-04T03:33:29.424Z,96134.67
2018-03-04T03:35:57.894Z,96144.47
2018-03-04T03:38:27.098Z,96145.94
2018-03-04T03:40:55.652Z,96141.80
2018-03-04T03:43:24.277Z,96145.88
2018-03-04T03:45:52.741Z,96142.55
2018-03-04T03:48:21.978Z,96142.66
2018-03-04T03:50:50.749Z,96156.84
2018-03-04T03:53:19.455Z,96155.46
2018-03-04T03:55:48.310Z,96158.66
2018-03-04T03:58:18.251Z,96168.05
2018-03-04T04:00:46.866Z,96178.66
2018-03-04T04:03:15.425Z,96179.69
2018-03-04T04:05:44.234Z,96187.89
2018-03-04T04:08:12.812Z,96185.38
2018-03-04T04:10:41.857Z,96173.14
2018-03-04T04:13:11.321Z,96175.89
2018-03-04T04:15:39.975Z,96179.09
2018-03-04T04:18:08.408Z,96184.09
2018-03-04T04:20:37.231Z,96186.05
2018-03-04T04:23:05.728Z,96180.33
2018-03-04T04:25:34.171Z,96185.23
2018-03-04T04:28:03.645Z,96202.06
2018-03-04T04:30:32.223Z,96195.54
2018-03-04T04:33:00.670Z,96203.63
2018-03-04T04:35:29.167Z,96202.55
2018-03-04T04:37:57.694Z,96204.49
2018-03-04T04:40:26.147Z,96210.31
2018-03-04T04:42:54.660Z,96214.83
2018-03-04T04:45:23.109Z,96213.61
2018-03-04T04:47:51.694Z,96219.02
2018-03-04T04:50:21.821Z,96226.30
2018-03-04T04:52:50.282Z,96226.00
2018-03-04T04:55:18.916Z,96217.27
2018-03-04T04:57:47.605Z,96216.55
2018-03-04T05:00:19.093Z,96217.61
2018-03-04T05:02:47.696Z,96220.50
2018-03-04T05:05:16.146Z,96218.05
2018-03-04T05:07:44.638Z,96217.78
2018-03-04T05:10:13.114Z,96222.17
2018-03-04T05:12:41.752Z,96232.38
2018-03-04T05:15:12.575Z,96229.83
2018-03-04T05:17:41.844Z,96227.28
2018-03-04T05:20:19.882Z,96224.62
2018-03-04T05:22:48.350Z,96218.95
2018-03-04T05:25:16.834Z,96219.16
2018-03-04T05:27:45.422Z,96228.27
2018-03-04T05:30:13.930Z,96224.53
2018-03-04T05:32:42.496Z,96219.73
2018-03-04T05:35:12.871Z,96218.52
2018-03-04T05:37:42.931Z,96211.10
2018-03-04T05:40:11.377Z,96217.02
2018-03-04T05:42:40.771Z,96224.57
2018-03-04T05:45:10.001Z,96227.63
2018-03-04T05:47:38.599Z,96229.60
2018-03-04T05:50:07.099Z,96224.12
2018-03-04T05:52:36.084Z,96217.70
2018-03-04T05:55:04.773Z,96210.81
2018-03-04T05:57:33.379Z,96216.62
2018-03-04T06:00:01.831Z,96222.84
2018-03-04T06:02:30.421Z,96226.96
2018-03-04T06:04:59.018Z,96220.95
2018-03-04T06:07:28.309Z,96219.75
2018-03-04T06:10:00.531Z,96207.28
2018-03-04T06:12:29.022Z,96207.69
2018-03-04T06:14:57.508Z,96211.50
2018-03-04T06:17:26.338Z,96226.22
2018-03-04T06:19:54.779Z,96228.46
2018-03-04T06:22:23.490Z,96227.23
2018-03-04T06:24:51.915Z,96216.73
2018-03-04T06:27:22.446Z,96208.00
2018-03-04T06:29:51.670Z,96201.98
2018-03-04T06:32:20.393Z,96218.81
2018-03-04T06:34:49.900Z,96240.02
2018-03-04T06:37:18.591Z,96230.47
2018-03-04T06:39:47.014Z,96234.95
2018-03-04T06:42:16.234Z,96225.27
2018-03-04T06:44:44.882Z,96215.17
2018-03-04T06:47:13.383Z,96213.47
2018-03-04T06:49:42.523Z,96232.55
2018-03-04T06:52:11.326Z,96240.60
2018-03-04T06:54:40.829Z,96242.44
2018-03-04T06:57:10.220Z,96239.00
2018-03-04T06:59:39.143Z,96226.26
2018-03-04T07:02:08.287Z,96225.55
2018-03-04T07:04:37.217Z,96241.08
2018-03-04T07:07:05.878Z,96253.22
2018-03-04T07:09:34.586Z,96258.24
2018-03-04T07:12:03.049Z,96259.06
2018-03-04T07:14:31.524Z,96253.86
2018-03-04T07:17:00.926Z,96266.44
2018-03-04T07:19:29.392Z,96276.63
2018-03-04T07:21:58.782Z,96279.28
2018-03-04T07:24:28.237Z,96281.52
2018-03-04T07:26:56.882Z,96290.09
2018-03-04T07:29:25.419Z,96280.81
2018-03-04T07:31:54.092Z,96288.08
2018-03-04T07:34:22.731Z,96296.45
2018-03-04T07:36:51.203Z,96290.73
2018-03-04T07:39:20.400Z,96295.12
2018-03-04T07:41:49.658Z,96296.55
2018-03-04T07:44:18.288Z,96289.71
2018-03-04T07:46:46.897Z,96282.20
2018-03-04T07:49:15.601Z,96289.10
2018-03-04T07:51:44.806Z,96287.27
2018-03-04T07:54:13.499Z,96283.70
2018-03-04T07:56:42.186Z,96288.66
2018-03-04T07:59:10.832Z,96293.73
2018-03-04T08:01:39.666Z,96293.11
2018-03-04T08:04:18.675Z,96301.48
2018-03-04T08:06:47.742Z,96294.31
2018-03-04T08:09:17.513Z,96289.82
2018-03-04T08:11:49.924Z,96295.13
2018-03-04T08:14:18.976Z,96298.75
2018-03-04T08:16:47.580Z,96296.20
2018-03-04T08:19:16.400Z,96301.36
2018-03-04T08:21:44.890Z,96299.46
2018-03-04T08:24:27.990Z,96289.74
2018-03-04T08:27:15.686Z,96289.06
2018-03-04T08:29:44.529Z,96287.91
2018-03-04T08:32:13.364Z,96284.62
2018-03-04T08:34:42.017Z,96281.36
2018-03-04T08:37:10.638Z,96279.63
2018-03-04T08:39:39.220Z,96280.71
2018-03-04T08:42:07.774Z,96292.95
2018-03-04T08:44:36.302Z,96294.20
2018-03-04T08:47:05.130Z,96294.14
2018-03-04T08:49:34.166Z,96299.81
2018-03-04T08:52:03.650Z,96295.77
2018-03-04T08:54:32.113Z,96300.73
2018-03-04T08:57:00.575Z,96300.73
2018-03-04T08:59:29.980Z,96306.20
2018-03-04T09:01:59.448Z,96298.73
2018-03-04T09:04:28.077Z,96297.06
2018-03-04T09:06:56.524Z,96296.59
2018-03-04T09:09:25.137Z,96301.45
2018-03-04T09:11:55.759Z,96301.78
2018-03-04T09:14:25.023Z,96294.30
2018-03-04T09:16:53.553Z,96297.80
2018-03-04T09:19:23.145Z,96295.11
2018-03-04T09:21:52.624Z,96289.46
2018-03-04T09:24:21.659Z,96287.66
2018-03-04T09:26:51.734Z,96286.12
2018-03-04T09:29:20.474Z,96278.53
2018-03-04T09:31:49.122Z,96275.38
2018-03-04T09:34:17.580Z,96279.76
2018-03-04T09:36:46.019Z,96280.58
2018-03-04T09:39:14.550Z,96282.72
2018-03-04T09:41:46.188Z,96280.06
2018-03-04T09:44:14.717Z,96277.78
2018-03-04T09:46:44.214Z,96281.25
2018-03-04T09:49:14.176Z,96288.30
2018-03-04T09:51:42.871Z,96281.55
2018-03-04T09:54:11.376Z,96301.14
2018-03-04T09:56:40.073Z,96297.73
2018-03-04T09:59:08.962Z,96296.98
2018-03-04T10:01:37.781Z,96293.17
2018-03-04T10:04:06.403Z,96289.47
2018-03-04T10:06:35.033Z,96306.44
2018-03-04T10:09:03.611Z,96294.84
2018-03-04T10:11:32.411Z,96296.52
2018-03-04T10:14:02.531Z,96291.96
2018-03-04T10:16:32.146Z,96296.25
2018-03-04T10:19:01.630Z,96301.91
2018-03-04T10:21:30.843Z,96291.36
2018-03-04T10:23:59.516Z,96290.38
2018-03-04T10:26:28.324Z,96279.19
2018-03-04T10:28:56.817Z,96285.48
2018-03-04T10:31:26.749Z,96284.88
2018-03-04T10:33:56.747Z,96279.00
2018-03-04T10:36:26.005Z,96271.42
2018-03-04T10:38:54.637Z,96265.53
2018-03-04T10:41:24.946Z,96264.31
2018-03-04T10:43:53.979Z,96261.49
2018-03-04T10:46:22.712Z,96272.72
2018-03-04T10:48:51.361Z,96266.73
2018-03-04T10:51:19.944Z,96266.97
2018-03-04T10:53:48.593Z,96262.41
2018-03-04T10:56:18.176Z,96260.78
2018-03-04T10:58:47.096Z,96250.41
2018-03-04T11:04:11.593Z,96238.02
2018-03-04T11:06:40.353Z,96231.11
2018-03-04T11:09:08.910Z,96222.95
2018-03-04T11:11:38.423Z,96233.80
2018-03-04T11:14:07.683Z,96232.61
2018-03-04T11:16:39.581Z,96230.74
2018-03-04T11:19:10.062Z,96236.34
2018-03-04T11:21:38.985Z,96231.73
2018-03-04T11:24:09.493Z,96235.19
2018-03-04T11:26:41.395Z,96234.85
2018-03-04T11:29:10.975Z,96228.39
2018-03-04T11:31:42.213Z,96225.29
2018-03-04T11:34:11.787Z,96223.08
2018-03-04T11:36:42.178Z,96221.98
2018-03-04T11:39:10.832Z,96225.27
2018-03-04T11:41:40.149Z,96214.72
2018-03-04T11:44:09.465Z,96215.98
2018-03-04T11:46:38.179Z,96205.73
2018-03-04T11:49:07.123Z,96194.02
2018-03-04T11:51:36.484Z,96195.27
2018-03-04T11:54:05.040Z,96197.77
2018-03-04T11:56:33.751Z,96197.31
2018-03-04T11:59:02.580Z,96197.34
2018-03-04T12:01:31.822Z,96199.38
2018-03-04T12:04:00.317Z,96198.22
2018-03-04T12:06:28.865Z,96197.98
2018-03-04T12:08:57.495Z,96193.81
2018-03-04T12:11:25.958Z,96200.27
2018-03-04T12:13:54.448Z,96182.55
2018-03-04T12:16:23.548Z,96193.58
2018-03-04T12:18:52.241Z,96188.27
2018-03-04T12:21:20.700Z,96185.45
2018-03-04T12:23:50.331Z,96180.49
2018-03-04T12:26:19.201Z,96189.13
2018-03-04T12:28:48.172Z,96180.20
2018-03-04T12:31:16.797Z,96172.06
2018-03-04T12:33:45.840Z,96166.70
2018-03-04T12:36:14.599Z,96168.63
2018-03-04T12:38:43.366Z,96172.95
2018-03-04T12:41:11.858Z,96168.30
2018-03-04T12:43:40.554Z,96156.46
2018-03-04T12:46:09.789Z,96151.73
2018-03-04T12:48:39.453Z,96150.97
2018-03-04T12:51:08.123Z,96145.88
2018-03-04T12:53:37.414Z,96138.08
2018-03-04T12:56:07.042Z,96141.71
2018-03-04T12:58:35.623Z,96144.13
2018-03-04T13:01:04.338Z,96145.67
2018-03-04T13:03:32.841Z,96143.02
2018-03-04T13:06:03.538Z,96142.15
2018-03-04T13:08:32.079Z,96148.38
2018-03-04T13:11:00.697Z,96156.17
2018-03-04T13:13:29.712Z,96147.16
2018-03-04T13:15:58.355Z,96148.67
2018-03-04T13:18:27.206Z,96146.80
2018-03-04T13:20:56.961Z,96149.95
2018-03-04T13:23:25.570Z,96150.46
2018-03-04T13:25:54.259Z,96148.32
2018-03-04T13:28:22.886Z,96148.05
2018-03-04T13:30:52.363Z,96141.11
2018-03-04T13:33:21.137Z,96143.77
2018-03-04T13:35:50.135Z,96142.03
2018-03-04T13:38:18.788Z,96145.75
2018-03-04T13:40:47.362Z,96143.20
2018-03-04T13:43:16.059Z,96139.88
2018-03-04T13:45:44.758Z,96148.19
2018-03-04T13:48:13.617Z,96143.39
2018-03-04T13:50:42.595Z,96148.94
2018-03-04T13:53:11.430Z,96151.84
2018-03-04T13:55:40.370Z,96139.84
2018-03-04T13:58:08.963Z,96144.58
2018-03-04T14:00:39.149Z,96141.22
2018-03-04T14:03:08.072Z,96143.09
2018-03-04T14:05:37.778Z,96141.97
2018-03-04T14:08:07.335Z,96137.73
2018-03-04T14:10:36.082Z,96139.16
2018-03-04T14:13:04.567Z,96134.50
2018-03-04T14:15:33.934Z,96131.55
2018-03-04T14:18:02.498Z,96128.44
2018-03-04T14:20:31.198Z,96129.97
2018-03-04T14:23:01.619Z,96122.31
2018-03-04T14:25:30.526Z,96123.70
2018-03-04T14:28:00.799Z,96125.48
2018-03-04T14:30:29.406Z,96126.19
2018-03-04T14:32:58.213Z,96125.09
2018-03-04T14:35:26.899Z,96125.25
2018-03-04T14:37:56.534Z,96127.41
2018-03-04T14:40:25.453Z,96118.69
2018-03-04T14:42:54.951Z,96119.16
2018-03-04T14:45:24.283Z,96115.74
2018-03-04T14:47:52.993Z,96111.52
2018-03-04T14:50:24.028Z,96108.00
2018-03-04T14:52:53.034Z,96108.05
2018-03-04T14:55:23.515Z,96104.23
2018-03-04T14:57:52.189Z,96103.06
2018-03-04T15:00:21.028Z,96109.59
2018-03-04T15:02:49.490Z,96105.45
2018-03-04T15:05:18.773Z,96100.55
2018-03-04T15:07:47.470Z,96103.63
2018-03-04T15:10:18.294Z,96100.62
2018-03-04T15:12:47.008Z,96100.38
2018-03-04T15:15:16.678Z,96089.65
2018-03-04T15:17:45.998Z,96085.31
2018-03-04T15:20:30.958Z,96081.13
2018-03-04T15:22:59.581Z,96082.67
2018-03-04T15:25:28.316Z,96075.32
2018-03-04T15:27:58.204Z,96081.51
2018-03-04T15:30:26.954Z,96079.06
2018-03-04T15:32:55.551Z,96077.83
2018-03-04T15:35:24.155Z,96075.48
2018-03-04T15:37:52.859Z,96077.53
2018-03-04T15:40:23.713Z,96070.84
2018-03-04T15:42:53.059Z,96072.20
2018-03-04T15:45:22.444Z,96070.00
2018-03-04T15:47:51.354Z,96075.00
2018-03-04T15:50:22.045Z,96074.28
2018-03-04T15:52:51.377Z,96073.67
2018-03-04T15:55:23.768Z,96075.20
2018-03-04T15:57:52.649Z,96073.66
2018-03-04T16:00:23.274Z,96072.64
2018-03-04T16:02:53.877Z,96077.86
2018-03-04T16:05:24.741Z,96075.28
2018-03-04T16:07:55.276Z,96073.63
2018-03-04T16:10:24.573Z,96068.22
2018-03-04T16:12:54.419Z,96064.67
2018-03-04T16:15:23.515Z,96068.30
2018-03-04T16:17:52.467Z,96069.22
2018-03-04T16:20:21.076Z,96068.26
2018-03-04T16:22:49.665Z,96073.46
2018-03-04T16:25:18.267Z,96079.25
2018-03-04T16:27:47.612Z,96078.70
2018-03-04T16:30:18.780Z,96075.19
2018-03-04T16:32:47.923Z,96079.31
2018-03-04T16:35:16.462Z,96085.03
2018-03-04T16:37:45.279Z,96084.67
2018-03-04T16:40:13.842Z,96083.50
2018-03-04T16:42:42.985Z,96082.84
2018-03-04T16:45:13.554Z,96084.05
2018-03-04T16:47:42.221Z,96083.54
2018-03-04T16:50:11.930Z,96086.46
2018-03-04T16:52:40.667Z,96083.14
2018-03-04T16:55:09.583Z,96086.09
2018-03-04T16:57:38.147Z,96093.16
2018-03-04T17:00:07.433Z,96090.90
2018-03-04T17:02:35.958Z,96087.83
2018-03-04T17:05:04.406Z,96097.66
2018-03-04T17:07:33.441Z,96111.36
2018-03-04T17:10:02.871Z,96096.84
2018-03-04T17:12:31.498Z,96100.56
2018-03-04T17:15:00.362Z,96107.08
2018-03-04T17:17:28.847Z,96100.42
2018-03-04T17:19:59.882Z,96111.88
2018-03-04T17:22:29.422Z,96111.88
2018-03-04T17:25:02.546Z,96109.73
2018-03-04T17:27:56.706Z,96111.72
2018-03-04T17:30:42.593Z,96110.80
2018-03-04T17:33:13.124Z,96109.22
2018-03-04T17:35:42.958Z,96105.38
2018-03-04T17:38:21.088Z,96108.08
2018-03-04T17:40:50.583Z,96099.33
2018-03-04T17:43:20.272Z,96103.77
2018-03-04T17:46:01.966Z,96107.39
2018-03-04T17:49:03.070Z,96105.70
2018-03-04T17:51:38.407Z,96115.83
2018-03-04T17:54:16.646Z,96120.67
2018-03-04T17:59:43.328Z,96119.73
2018-03-04T18:07:25.550Z,96126.02
2018-03-04T18:09:56.182Z,96127.47
2018-03-04T18:12:26.480Z,96126.25
2018-03-04T18:14:57.009Z,96124.92
2018-03-04T18:17:32.070Z,96128.80
2018-03-04T18:20:19.302Z,96127.17
2018-03-04T18:22:50.884Z,96138.77
2018-03-04T18:25:42.611Z,96132.75
2018-03-04T18:28:12.351Z,96135.81
2018-03-04T18:30:43.145Z,96133.27
2018-03-04T18:36:49.296Z,96130.86
2018-03-04T18:39:22.707Z,96131.67
2018-03-04T18:44:54.089Z,96130.34
2018-03-04T18:47:53.191Z,96131.67
2018-03-04T18:53:37.243Z,96129.45
2018-03-04T18:56:25.643Z,96124.14
2018-03-04T18:58:54.448Z,96126.03
2018-03-04T19:01:31.643Z,96121.56
2018-03-04T19:04:04.062Z,96116.28
2018-03-04T19:06:33.971Z,96113.70
2018-03-04T19:09:02.880Z,96113.22
2018-03-04T19:11:57.155Z,96108.41
2018-03-04T19:17:08.665Z,96109.09
2018-03-04T19:19:38.530Z,96112.38
2018-03-04T19:24:23.656Z,96114.47
2018-03-04T19:26:53.099Z,96123.94
2018-03-04T19:29:26.680Z,96126.17
2018-03-04T19:32:12.961Z,96119.57
2018-03-04T19:34:45.551Z,96114.19
2018-03-04T19:40:30.116Z,96100.11
2018-03-04T19:43:02.897Z,96104.36
2018-03-04T19:45:38.189Z,96102.86
2018-03-04T19:48:07.318Z,96099.82
2018-03-04T20:00:55.933Z,96088.79
2018-03-04T20:06:37.803Z,96087.77
2018-03-04T20:09:08.100Z,96090.52
2018-03-04T20:11:42.702Z,96089.46
2018-03-04T20:14:22.995Z,96084.89
2018-03-04T20:16:53.341Z,96088.75
2018-03-04T20:19:23.717Z,96084.75
2018-03-04T20:21:53.984Z,96079.94
2018-03-04T20:24:24.216Z,96087.41
2018-03-04T20:29:55.739Z,96086.75
2018-03-04T20:38:16.724Z,96073.92
2018-03-04T20:40:50.108Z,96072.48
2018-03-04T20:43:20.873Z,96078.38
2018-03-04T21:04:23.406Z,96086.06
2018-03-04T21:06:52.584Z,96082.67
2018-03-04T21:09:41.717Z,96081.97
2018-03-04T21:12:30.384Z,96073.52
2018-03-04T21:14:59.439Z,96076.95
2018-03-04T21:17:42.476Z,96080.66
2018-03-04T21:20:17.348Z,96079.56
2018-03-04T21:26:08.786Z,96071.78
2018-03-04T21:29:05.001Z,96079.62
2018-03-04T21:31:34.254Z,96069.20
2018-03-04T21:34:04.309Z,96065.18
2018-03-04T21:36:44.968Z,96066.89
2018-03-04T21:39:18.603Z,96079.00
2018-03-04T21:41:48.180Z,96069.13
2018-03-04T21:44:17.053Z,96072.69
2018-03-04T21:49:40.359Z,96067.19
2018-03-04T21:52:33.102Z,96064.08
2018-03-04T21:55:05.762Z,96064.46
2018-03-04T21:58:01.470Z,96065.91
2018-03-04T22:00:40.241Z,96062.81
2018-03-04T22:09:08.067Z,96052.53
2018-03-04T22:11:36.568Z,96052.99
2018-03-04T22:17:06.806Z,96050.97
2018-03-04T22:19:36.963Z,96050.94
2018-03-04T22:22:35.870Z,96050.67
2018-03-04T22:25:05.947Z,96043.06
2018-03-04T22:27:35.203Z,96037.96
2018-03-04T22:30:04.384Z,96025.72
2018-03-04T22:33:06.302Z,96025.98
2018-03-04T22:35:38.613Z,96026.62
2018-03-04T22:38:07.951Z,96030.03
2018-03-04T22:40:58.154Z,96028.98
2018-03-04T22:43:28.991Z,96030.58
2018-03-04T22:45:58.440Z,96025.62
2018-03-04T22:48:27.747Z,96019.90
2018-03-04T22:50:57.848Z,96021.48
2018-03-04T22:53:34.855Z,96009.71
2018-03-04T22:56:07.610Z,96012.14
2018-03-04T22:58:50.092Z,96003.46
2018-03-04T23:01:21.669Z,96000.54
2018-03-04T23:04:01.355Z,96001.44
2018-03-04T23:06:32.561Z,96001.28
2018-03-04T23:09:07.670Z,96000.47
2018-03-04T23:11:44.297Z,95995.93
2018-03-04T23:14:20.157Z,95990.87
2018-03-04T23:16:49.284Z,95991.13
2018-03-04T23:19:19.574Z,95987.66
2018-03-04T23:21:55.737Z,95984.84
2018-03-04T23:24:25.524Z,95977.13
2018-03-04T23:27:18.570Z,95975.98
2018-03-04T23:29:52.934Z,95972.62
2018-03-04T23:32:23.871Z,95974.59
2018-03-04T23:34:55.942Z,95969.91
2018-03-04T23:37:24.897Z,95966.25
2018-03-04T23:39:53.690Z,95967.29
2018-03-04T23:42:23.537Z,95961.78
2018-03-04T23:44:56.954Z,95963.80
2018-03-04T23:47:25.828Z,95956.48
2018-03-04T23:49:54.617Z,95955.52
2018-03-04T23:52:23.291Z,95954.12
2018-03-04T23:54:53.302Z,95947.88
2018-03-04T23:57:39.107Z,95957.66
